Time;durP1;ratioP1;P1;durP2;ratioP2;P2;SDS_P1;SDS_P2;PMS_P1;PMS_P2;Temp;Humidity;BMP_temperature;BMP_pressure;BME280_temperature;BME280_humidity;BME280_pressure;Samples;Min_cycle;Max_cycle;Signal;HPM_P1;HPM_P2
2021/11/17 02:27:50;;;;;;;;;60.25;45.75;;;;;10.96;74.39;101865.28;4925201;28;45494;-54
2021/11/17 02:30:56;;;;;;;;;55.50;42.25;;;;;10.93;74.29;101854.88;4932589;28;45559;-54
2021/11/17 02:33:28;;;;;;;;;63.50;48.00;;;;;10.88;74.71;101858.56;4932314;28;45699;-52
2021/11/17 02:36:15;;;;;;;;;53.25;38.75;;;;;10.83;74.90;101855.28;4933037;28;45552;-52
2021/11/17 02:39:05;;;;;;;;;65.75;43.75;;;;;10.80;74.83;101842.22;4933091;28;45406;-52
2021/11/17 02:41:53;;;;;;;;;57.75;43.25;;;;;10.78;74.30;101832.66;4929969;28;45706;-52
2021/11/17 02:44:43;;;;;;;;;54.25;40.75;;;;;10.76;74.67;101824.81;4931831;28;46325;-52
2021/11/17 02:47:11;;;;;;;;;59.75;40.75;;;;;10.72;74.41;101846.94;4930175;28;45606;-50
2021/11/17 02:49:58;;;;;;;;;54.75;40.75;;;;;10.69;74.94;101851.50;4932339;28;45469;-52
2021/11/17 02:52:48;;;;;;;;;58.50;41.75;;;;;10.67;75.02;101856.00;4934602;28;45433;-51
2021/11/17 02:55:38;;;;;;;;;55.75;39.25;;;;;10.67;74.69;101861.25;4932412;28;45263;-52
2021/11/17 02:58:39;;;;;;;;;56.50;38.75;;;;;10.65;74.54;101866.56;4932910;28;45417;-52
2021/11/17 03:01:13;;;;;;;;;52.25;37.50;;;;;10.66;74.62;101862.16;4934928;28;45271;-54
2021/11/17 03:03:42;;;;;;;;;58.00;39.50;;;;;10.67;74.91;101870.03;4934013;28;45237;-55
2021/11/17 03:06:25;;;;;;;;;58.75;44.00;;;;;10.70;75.31;101869.03;4930386;28;46239;-54
2021/11/17 03:09:43;;;;;;;;;51.00;40.25;;;;;10.73;75.12;101863.63;4933203;28;45414;-56
2021/11/17 03:12:15;;;;;;;;;54.50;42.50;;;;;10.75;74.89;101872.34;4832796;28;45347;-56
2021/11/17 03:14:53;;;;;;;;;59.25;40.75;;;;;10.78;74.83;101891.50;4934121;28;45518;-55
2021/11/17 03:17:31;;;;;;;;;58.25;45.75;;;;;10.79;75.25;101889.72;4932931;28;46439;-55
2021/11/17 03:20:21;;;;;;;;;57.25;45.00;;;;;10.81;74.92;101885.22;4932773;28;45260;-56
2021/11/17 03:23:18;;;;;;;;;59.25;43.50;;;;;10.84;74.97;101903.56;4931412;28;45390;-56
2021/11/17 03:26:11;;;;;;;;;51.75;41.25;;;;;10.85;74.88;101905.28;4934079;28;45499;-56
2021/11/17 03:28:42;;;;;;;;;60.25;42.50;;;;;10.86;74.69;101910.50;4932061;28;45355;-55
2021/11/17 03:31:14;;;;;;;;;61.25;44.25;;;;;10.86;75.16;101921.03;4930472;28;45253;-55
2021/11/17 03:34:05;;;;;;;;;56.75;39.50;;;;;10.89;75.00;101914.75;4931780;28;45455;-56
2021/11/17 03:36:49;;;;;;;;;57.25;44.25;;;;;10.91;74.64;101912.94;4924806;28;45386;-55
2021/11/17 03:39:39;;;;;;;;;61.75;43.25;;;;;10.92;74.77;101911.16;4932762;28;45227;-56
2021/11/17 03:42:44;;;;;;;;;54.00;38.50;;;;;10.92;74.78;101914.66;4934015;28;45457;-56
2021/11/17 03:45:37;;;;;;;;;63.50;41.00;;;;;10.93;74.95;101916.38;4929325;28;45247;-56
2021/11/17 03:48:21;;;;;;;;;58.25;42.50;;;;;10.95;74.58;101921.56;4931585;28;46484;-56
2021/11/17 03:51:07;;;;;;;;;58.50;46.00;;;;;10.95;74.67;101926.84;4930701;28;46126;-55
2021/11/17 03:54:07;;;;;;;;;54.25;42.00;;;;;10.95;74.56;101929.47;4931210;28;45530;-55
2021/11/17 03:56:58;;;;;;;;;61.50;44.00;;;;;10.97;74.94;101932.91;4930339;28;45466;-56
2021/11/17 03:59:45;;;;;;;;;56.00;42.75;;;;;10.97;74.54;101927.63;4931388;28;45592;-56
2021/11/17 04:02:37;;;;;;;;;57.00;42.00;;;;;10.99;74.54;101928.44;4931044;28;45495;-56
2021/11/17 04:05:21;;;;;;;;;60.75;46.75;;;;;11.00;74.66;101936.28;4931723;28;45459;-54
2021/11/17 04:07:58;;;;;;;;;56.25;43.50;;;;;11.02;74.70;101941.50;4927680;28;45316;-57
2021/11/17 04:10:24;;;;;;;;;57.00;43.00;;;;;11.04;74.51;101940.50;4930928;28;45496;-56
2021/11/17 04:13:11;;;;;;;;;56.50;43.75;;;;;11.06;74.54;101946.59;4932775;28;45533;-56
2021/11/17 04:15:51;;;;;;;;;55.25;41.50;;;;;11.08;74.49;101943.88;4931044;28;45256;-56
2021/11/17 04:18:38;;;;;;;;;56.50;44.00;;;;;11.05;74.49;101946.63;4932682;28;46659;-55
2021/11/17 04:21:22;;;;;;;;;52.00;40.75;;;;;11.04;74.42;101961.59;4931198;28;45470;-56
2021/11/17 04:24:00;;;;;;;;;52.00;43.50;;;;;11.04;74.55;101963.38;4930634;28;46140;-52
2021/11/17 04:26:59;;;;;;;;;54.50;39.75;;;;;11.05;74.41;101971.22;4932630;28;45293;-55
2021/11/17 04:29:31;;;;;;;;;60.75;44.50;;;;;11.07;74.59;101965.91;4931958;28;45290;-55
2021/11/17 04:32:44;;;;;;;;;61.25;41.50;;;;;11.06;74.74;101961.50;4930421;28;45284;-54
2021/11/17 04:35:34;;;;;;;;;56.75;42.50;;;;;11.05;74.71;101965.06;4907892;28;45542;-56
2021/11/17 04:38:36;;;;;;;;;59.50;41.25;;;;;11.03;74.95;101965.16;4931199;28;45261;-56
2021/11/17 04:41:09;;;;;;;;;55.50;40.75;;;;;11.03;75.33;101973.06;4934133;28;45460;-55
2021/11/17 04:44:01;;;;;;;;;57.75;42.75;;;;;11.02;75.56;101976.63;4929512;28;45463;-55
2021/11/17 04:46:45;;;;;;;;;53.75;41.00;;;;;11.02;75.50;101973.13;4930975;28;45547;-56
2021/11/17 04:49:22;;;;;;;;;55.00;40.75;;;;;11.04;75.67;101971.28;4930258;28;45632;-56
2021/11/17 04:51:54;;;;;;;;;58.75;44.00;;;;;11.06;75.65;101977.34;4930265;28;45251;-56
2021/11/17 04:54:37;;;;;;;;;57.75;41.75;;;;;11.07;75.77;101968.53;4913794;28;45561;-55
2021/11/17 04:57:12;;;;;;;;;38.50;25.75;;;;;11.05;76.00;101971.22;4932345;28;45327;-56
2021/11/17 04:59:56;;;;;;;;;57.75;42.00;;;;;11.04;76.14;101973.91;4933613;28;45226;-57
2021/11/17 05:02:34;;;;;;;;;55.75;41.50;;;;;11.05;75.85;101967.72;4932371;28;45419;-56
2021/11/17 05:05:15;;;;;;;;;55.00;42.50;;;;;11.07;75.75;101965.91;4930335;28;45177;-56
2021/11/17 05:08:11;;;;;;;;;57.75;42.00;;;;;11.10;76.23;101960.47;4931508;28;45374;-55
2021/11/17 05:10:37;;;;;;;;;57.50;40.25;;;;;11.11;76.07;101959.56;4911953;28;45444;-56
2021/11/17 05:13:24;;;;;;;;;44.25;33.25;;;;;11.11;76.11;101964.81;4931444;28;45425;-56
2021/11/17 05:16:04;;;;;;;;;58.00;40.50;;;;;11.10;76.38;101969.25;4926846;28;45531;-56
2021/11/17 05:18:32;;;;;;;;;58.50;44.50;;;;;11.11;76.17;101965.69;4928164;28;45546;-55
2021/11/17 05:21:21;;;;;;;;;62.75;41.00;;;;;11.14;76.34;101965.56;4930030;28;45328;-57
2021/11/17 05:24:08;;;;;;;;;53.00;39.75;;;;;11.15;76.01;101962.00;4934245;28;45401;-57
2021/11/17 05:26:52;;;;;;;;;50.00;39.00;;;;;11.16;76.17;101968.16;4933039;28;45390;-56
2021/11/17 05:29:50;;;;;;;;;58.25;41.75;;;;;11.15;76.72;101964.66;4932624;28;45494;-54
2021/11/17 05:32:45;;;;;;;;;52.25;42.25;;;;;11.15;76.28;101959.38;4903582;28;45824;-54
2021/11/17 05:35:37;;;;;;;;;53.75;41.50;;;;;11.15;76.76;101956.75;4935796;28;45332;-56
2021/11/17 05:38:15;;;;;;;;;60.25;41.25;;;;;11.17;76.51;101954.03;4923180;28;45509;-56
2021/11/17 05:41:11;;;;;;;;;53.25;38.00;;;;;11.22;76.48;101959.97;4933952;28;46001;-56
2021/11/17 05:43:49;;;;;;;;;44.25;37.00;;;;;11.24;76.71;101952.00;4932434;28;45367;-56
2021/11/17 05:46:26;;;;;;;;;60.50;42.00;;;;;11.25;76.54;101948.44;4931614;28;45480;-57
2021/11/17 05:49:10;;;;;;;;;51.00;39.75;;;;;11.26;76.48;101953.63;4932073;28;45382;-56
2021/11/17 05:51:45;;;;;;;;;53.00;38.00;;;;;11.29;76.74;101958.75;4933392;28;45397;-57
2021/11/17 05:54:19;;;;;;;;;52.50;36.00;;;;;11.31;76.64;101948.19;4931389;28;45298;-56
2021/11/17 05:56:51;;;;;;;;;44.00;38.00;;;;;11.32;76.94;101945.47;4933980;28;45238;-55
2021/11/17 05:59:40;;;;;;;;;45.25;35.50;;;;;11.32;76.67;101944.59;4934738;28;45295;-54
2021/11/17 06:02:13;;;;;;;;;367.00;307.25;;;;;11.32;76.84;101944.59;4933630;28;45395;-54
2021/11/17 06:04:39;;;;;;;;;47.75;38.50;;;;;11.35;76.61;101936.56;4934602;28;45160;-54
2021/11/17 06:07:04;;;;;;;;;45.50;35.25;;;;;11.35;76.71;101929.50;4934488;28;45236;-55
2021/11/17 06:09:29;;;;;;;;;58.25;38.75;;;;;11.36;76.50;101941.75;4931660;28;45424;-56
2021/11/17 06:11:58;;;;;;;;;49.75;38.75;;;;;11.33;76.72;101944.53;4933320;28;46098;-55
2021/11/17 06:14:28;;;;;;;;;33.25;29.00;;;;;11.37;76.45;101939.97;4935423;28;45382;-56
2021/11/17 06:16:58;;;;;;;;;30.00;27.50;;;;;11.39;76.89;101925.81;4932759;28;45237;-55
2021/11/17 06:19:26;;;;;;;;;43.50;36.50;;;;;11.40;76.53;101930.16;4935390;28;45319;-56
2021/11/17 06:21:53;;;;;;;;;52.75;39.00;;;;;11.42;76.64;101940.63;4931224;28;46192;-56
2021/11/17 06:24:22;;;;;;;;;38.25;34.25;;;;;11.43;76.75;101935.28;4932099;28;45377;-55
2021/11/17 06:26:48;;;;;;;;;37.75;34.50;;;;;11.46;76.62;101944.88;4933311;28;45351;-57
2021/11/17 06:29:22;;;;;;;;;43.75;33.00;;;;;11.46;76.35;101935.19;4935372;28;45509;-54
2021/11/17 06:31:50;;;;;;;;;42.50;32.50;;;;;11.47;76.47;101941.31;4933881;28;45381;-53
2021/11/17 06:34:41;;;;;;;;;42.50;36.00;;;;;11.48;76.28;101947.44;4932965;28;45503;-54
2021/11/17 06:37:14;;;;;;;;;41.25;33.50;;;;;11.46;76.17;101940.44;4928464;28;45461;-57
2021/11/17 06:39:43;;;;;;;;;47.25;31.25;;;;;11.46;76.27;101940.44;4935425;28;45217;-56
2021/11/17 06:42:12;;;;;;;;;47.25;35.50;;;;;11.47;76.23;101946.59;4933760;28;46506;-56
2021/11/17 06:44:40;;;;;;;;;35.25;29.75;;;;;11.48;76.03;101955.34;4932279;28;45376;-57
2021/11/17 06:47:05;;;;;;;;;35.00;30.50;;;;;11.45;76.35;101957.22;4932314;28;45173;-57
2021/11/17 06:49:31;;;;;;;;;41.50;33.25;;;;;11.45;76.13;101966.88;4934668;28;45325;-57
2021/11/17 06:51:57;;;;;;;;;48.25;34.75;;;;;11.42;76.19;101956.47;4934883;28;45478;-56
2021/11/17 06:54:22;;;;;;;;;41.50;35.00;;;;;11.41;76.60;101973.22;4932185;28;45430;-57
2021/11/17 06:56:48;;;;;;;;;39.25;29.00;;;;;11.40;76.28;101969.72;4932047;28;45271;-56
2021/11/17 06:59:14;;;;;;;;;44.00;31.75;;;;;11.39;76.30;101985.63;4934784;28;45418;-56
2021/11/17 07:01:39;;;;;;;;;39.00;28.50;;;;;11.38;76.53;101986.56;4933262;28;46287;-56
2021/11/17 07:04:05;;;;;;;;;36.00;28.75;;;;;11.36;76.59;101983.97;4932877;28;45367;-56
2021/11/17 07:06:31;;;;;;;;;39.75;32.50;;;;;11.33;76.61;101999.06;4932490;28;45269;-55
2021/11/17 07:08:56;;;;;;;;;45.00;31.75;;;;;11.33;76.81;101999.94;4934415;28;45523;-55
2021/11/17 07:11:23;;;;;;;;;47.00;29.75;;;;;11.34;77.05;102006.91;4934871;28;46028;-56
2021/11/17 07:13:48;;;;;;;;;38.50;29.25;;;;;11.35;76.79;102006.00;4932655;28;45435;-57
2021/11/17 07:16:14;;;;;;;;;43.50;30.00;;;;;11.35;76.74;102019.19;4932634;28;45426;-57
2021/11/17 07:18:39;;;;;;;;;40.00;28.25;;;;;11.33;76.90;102017.53;4932007;28;45293;-57
2021/11/17 07:21:07;;;;;;;;;37.00;28.00;;;;;11.32;77.07;102021.09;4933229;28;45734;-54
2021/11/17 07:23:33;;;;;;;;;47.50;30.25;;;;;11.33;77.27;102023.69;4933130;28;45362;-57
2021/11/17 07:25:58;;;;;;;;;39.25;27.75;;;;;11.35;77.42;102026.25;4932941;28;45329;-56
2021/11/17 07:28:24;;;;;;;;;38.50;33.75;;;;;11.38;77.33;102031.41;4923210;28;45581;-56
2021/11/17 07:30:50;;;;;;;;;43.50;34.00;;;;;11.42;77.00;102039.13;4931516;28;45331;-57
2021/11/17 07:33:15;;;;;;;;;43.25;28.50;;;;;11.45;77.23;102046.91;4932164;28;45387;-57
2021/11/17 07:35:45;;;;;;;;;46.00;34.50;;;;;11.49;77.04;102054.69;4929438;28;45231;-57
2021/11/17 07:38:15;;;;;;;;;33.75;28.00;;;;;11.52;76.86;102058.06;4931214;28;45466;-56
2021/11/17 07:40:44;;;;;;;;;47.25;35.25;;;;;11.57;77.19;102049.94;4931874;28;45477;-57
2021/11/17 07:43:10;;;;;;;;;54.75;37.25;;;;;11.60;76.93;102049.81;4931959;28;45451;-57
2021/11/17 07:45:38;;;;;;;;;40.25;33.75;;;;;11.64;76.90;102057.53;4931972;28;45488;-58
2021/11/17 07:48:04;;;;;;;;;38.25;32.75;;;;;11.65;76.82;102061.91;4932424;28;45375;-58
2021/11/17 07:50:30;;;;;;;;;34.00;28.50;;;;;11.66;76.61;102066.25;4932150;28;45311;-57
2021/11/17 07:52:57;;;;;;;;;35.00;27.75;;;;;11.66;77.09;102060.97;4933724;28;45164;-57
2021/11/17 07:55:22;;;;;;;;;39.00;33.25;;;;;11.70;76.58;102057.28;4932060;28;45426;-57
2021/11/17 07:57:51;;;;;;;;;39.00;29.25;;;;;11.70;76.64;102057.28;4933075;28;45243;-56
2021/11/17 08:00:22;;;;;;;;;39.75;33.50;;;;;11.70;76.38;102064.34;4932591;28;46265;-56
2021/11/17 08:02:49;;;;;;;;;33.75;26.25;;;;;11.71;76.63;102058.16;4927930;28;45299;-56
2021/11/17 08:05:15;;;;;;;;;39.25;30.00;;;;;11.72;76.63;102052.78;4934090;28;45312;-57
2021/11/17 08:07:41;;;;;;;;;43.75;33.75;;;;;11.78;76.55;102045.53;4933741;28;45491;-58
2021/11/17 08:10:11;;;;;;;;;38.50;33.75;;;;;11.81;76.19;102058.63;4932604;28;45482;-57
2021/11/17 08:12:37;;;;;;;;;41.50;32.25;;;;;11.81;76.47;102054.22;4930252;28;45306;-57
2021/11/17 08:15:03;;;;;;;;;49.50;31.50;;;;;11.85;76.56;102065.47;4933741;28;45274;-55
2021/11/17 08:17:28;;;;;;;;;37.50;34.50;;;;;11.88;76.23;102068.00;4935271;28;45312;-57
2021/11/17 08:19:54;;;;;;;;;43.00;33.75;;;;;11.90;76.04;102060.88;4932086;28;45803;-56
2021/11/17 08:22:19;;;;;;;;;37.50;32.00;;;;;11.91;76.21;102071.34;4931441;28;45429;-56
2021/11/17 08:24:45;;;;;;;;;35.25;33.75;;;;;11.93;76.24;102071.31;4914884;28;45507;-56
2021/11/17 08:27:18;;;;;;;;;37.25;33.75;;;;;11.94;76.14;102065.97;4930914;28;45446;-57
2021/11/17 08:29:47;;;;;;;;;44.75;36.50;;;;;11.94;76.32;102073.88;4927126;28;45286;-57
2021/11/17 08:32:12;;;;;;;;;48.00;31.75;;;;;11.95;76.23;102075.59;4929839;28;45445;-57
2021/11/17 08:34:38;;;;;;;;;44.75;33.75;;;;;11.98;76.31;102074.59;4933099;28;45532;-55
2021/11/17 08:37:05;;;;;;;;;42.50;35.25;;;;;12.00;76.46;102075.38;4931964;28;45474;-59
2021/11/17 08:39:31;;;;;;;;;46.75;34.50;;;;;12.04;76.33;102079.63;4931932;28;45486;-55
2021/11/17 08:41:57;;;;;;;;;45.00;36.75;;;;;12.03;76.17;102080.53;4928399;28;45524;-55
2021/11/17 08:44:22;;;;;;;;;21.00;12.25;;;;;11.99;76.44;102079.81;4932426;28;45303;-58
2021/11/17 08:46:48;;;;;;;;;46.75;35.75;;;;;12.03;76.31;102085.81;4932571;28;45362;-55
2021/11/17 08:49:13;;;;;;;;;34.00;33.00;;;;;12.05;76.47;102081.31;4923817;28;46050;-52
2021/11/17 08:51:39;;;;;;;;;42.50;34.50;;;;;12.06;76.25;102090.97;4929454;28;45445;-56
2021/11/17 08:54:05;;;;;;;;;51.00;37.00;;;;;12.08;76.38;102088.25;4930853;28;45493;-55
2021/11/17 08:56:36;;;;;;;;;41.50;32.25;;;;;12.10;76.25;102091.72;4933001;28;45565;-56
2021/11/17 08:59:03;;;;;;;;;47.25;33.50;;;;;12.10;76.28;102089.91;4933549;28;46307;-54
2021/11/17 09:01:30;;;;;;;;;40.00;28.00;;;;;12.11;76.04;102098.69;4930993;28;45434;-53
2021/11/17 09:03:57;;;;;;;;;50.50;33.50;;;;;12.11;76.34;102098.69;4934335;28;45410;-53
2021/11/17 09:06:23;;;;;;;;;49.25;37.00;;;;;12.08;76.24;102099.66;4932453;28;45381;-55
2021/11/17 09:08:48;;;;;;;;;48.50;34.75;;;;;12.09;76.18;102100.56;4933061;28;45473;-50
2021/11/17 09:11:16;;;;;;;;;48.50;35.75;;;;;12.10;76.34;102100.47;4934372;28;45515;-49
2021/11/17 09:13:42;;;;;;;;;39.50;33.50;;;;;12.11;76.27;102102.19;4933211;28;45358;-56
2021/11/17 09:16:11;;;;;;;;;48.00;35.00;;;;;12.12;76.20;102095.97;4933064;28;45186;-54
2021/11/17 09:18:41;;;;;;;;;38.25;33.25;;;;;12.17;76.18;102096.66;4930643;28;45558;-54
2021/11/17 09:21:13;;;;;;;;;45.50;35.00;;;;;12.17;76.20;102101.94;4932959;28;45241;-53
2021/11/17 09:23:39;;;;;;;;;36.50;31.75;;;;;12.20;76.23;102109.72;4929681;28;45525;-53
2021/11/17 09:26:05;;;;;;;;;38.25;33.75;;;;;12.23;76.29;102114.84;4933201;28;45504;-53
2021/11/17 09:28:33;;;;;;;;;39.00;32.75;;;;;12.24;75.83;102106.03;4932745;28;45433;-53
2021/11/17 09:30:59;;;;;;;;;37.50;31.25;;;;;12.29;76.11;102114.59;4933144;28;45333;-54
2021/11/17 09:33:27;;;;;;;;;44.75;34.75;;;;;12.34;76.23;102116.19;4932714;28;45645;-51
2021/11/17 09:35:53;;;;;;;;;39.25;31.50;;;;;12.36;76.24;102117.81;4933919;28;45485;-52
2021/11/17 09:38:20;;;;;;;;;42.25;34.50;;;;;12.40;76.11;102115.88;4931633;28;46441;-51
2021/11/17 09:40:56;;;;;;;;;39.50;30.25;;;;;12.46;75.83;102118.25;4932619;28;45383;-52
2021/11/17 09:43:48;;;;;;;;;34.00;27.25;;;;;12.50;75.96;102118.06;4928815;28;45256;-52
2021/11/17 09:46:21;;;;;;;;;34.75;30.75;;;;;12.58;75.77;102128.28;4932995;28;45712;-51
2021/11/17 09:48:50;;;;;;;;;38.25;29.75;;;;;12.62;75.79;102126.34;4932365;28;46289;-53
2021/11/17 09:51:26;;;;;;;;;39.50;29.25;;;;;12.64;75.64;102125.38;4929975;28;45329;-54
2021/11/17 09:54:10;;;;;;;;;33.00;27.75;;;;;12.66;75.42;102133.22;4933695;28;45501;-51
2021/11/17 09:56:48;;;;;;;;;36.50;29.50;;;;;12.66;75.46;102133.22;4932210;28;45374;-51
2021/11/17 09:59:21;;;;;;;;;21.50;14.75;;;;;12.69;75.46;102135.72;4933924;28;46136;-54
2021/11/17 10:01:54;;;;;;;;;43.00;34.50;;;;;12.69;75.29;102136.56;4931505;28;45446;-51
2021/11/17 10:04:31;;;;;;;;;45.25;32.75;;;;;12.74;75.37;102146.94;4930202;28;45260;-49
2021/11/17 10:13:24;;;;;;;;;40.50;32.00;;;;;12.94;74.91;102146.88;4932784;28;45362;-53
2021/11/17 10:15:53;;;;;;;;;45.00;34.00;;;;;12.97;75.00;102151.19;4932286;28;45504;-55
2021/11/17 10:18:47;;;;;;;;;43.00;33.50;;;;;13.00;75.07;102154.53;4929700;28;45171;-54
2021/11/17 10:21:31;;;;;;;;;38.75;32.00;;;;;13.02;74.86;102150.00;4933370;28;45987;-57
2021/11/17 10:24:06;;;;;;;;;40.00;34.00;;;;;13.06;74.86;102151.59;4929762;28;45468;-49
2021/11/17 10:26:48;;;;;;;;;36.75;33.00;;;;;13.13;74.74;102158.31;4932665;28;45423;-53
2021/11/17 10:29:25;;;;;;;;;36.25;28.75;;;;;13.18;74.50;102149.28;4932234;28;45454;-52
2021/11/17 10:31:55;;;;;;;;;33.00;26.25;;;;;13.19;74.57;102154.50;4931754;28;45381;-52
2021/11/17 10:34:32;;;;;;;;;37.25;31.75;;;;;13.19;74.28;102146.56;4931984;28;45653;-54
2021/11/17 10:37:01;;;;;;;;;38.25;31.50;;;;;13.24;74.69;102151.69;4928076;28;45366;-56
2021/11/17 10:39:39;;;;;;;;;41.75;35.25;;;;;13.29;74.24;102145.25;4927856;28;45400;-57
2021/11/17 10:42:37;;;;;;;;;37.75;29.75;;;;;13.33;74.55;102153.88;4923309;28;45459;-56
2021/11/17 10:45:24;;;;;;;;;37.25;31.75;;;;;13.36;74.17;102156.41;4928164;28;45350;-53
2021/11/17 10:47:51;;;;;;;;;42.00;33.75;;;;;13.39;74.17;102150.94;4930183;28;45328;-55
2021/11/17 10:50:24;;;;;;;;;39.50;35.00;;;;;13.45;73.95;102157.75;4933040;28;45386;-52
2021/11/17 10:53:07;;;;;;;;;49.00;30.00;;;;;13.48;73.93;102155.78;4931449;28;45255;-53
2021/11/17 10:55:32;;;;;;;;;32.25;27.25;;;;;13.52;73.73;102152.06;4931904;28;45326;-56
2021/11/17 10:57:58;;;;;;;;;35.00;31.00;;;;;13.56;73.86;102150.13;4931848;28;45535;-55
2021/11/17 11:00:33;;;;;;;;;30.50;26.75;;;;;13.63;73.68;102148.88;4932478;28;45442;-52
2021/11/17 11:03:01;;;;;;;;;37.25;28.25;;;;;13.74;73.73;102140.41;4929181;28;45347;-51
2021/11/17 11:05:33;;;;;;;;;36.50;30.00;;;;;13.84;73.25;102145.19;4933208;28;45394;-52
2021/11/17 11:08:07;;;;;;;;;41.00;34.75;;;;;13.94;72.85;102142.91;4931146;28;45365;-50
2021/11/17 11:10:40;;;;;;;;;33.50;29.75;;;;;14.05;72.84;102145.00;4930429;28;45483;-50
2021/11/17 11:13:11;;;;;;;;;36.50;31.75;;;;;14.10;72.72;102145.63;4929079;28;45720;-47
2021/11/17 11:15:47;;;;;;;;;37.75;30.50;;;;;14.17;72.24;102147.88;4931005;28;45259;-52
2021/11/17 11:18:13;;;;;;;;;32.00;30.75;;;;;14.26;72.31;102146.56;4929902;28;45482;-52
2021/11/17 11:20:47;;;;;;;;;37.75;32.50;;;;;14.35;72.21;102142.56;4929847;28;45604;-52
2021/11/17 11:23:18;;;;;;;;;32.50;27.25;;;;;14.42;72.02;102136.00;4931314;28;46030;-51
2021/11/17 11:26:20;;;;;;;;;37.00;29.50;;;;;14.51;71.52;102135.53;4929017;28;45329;-50
2021/11/17 11:28:46;;;;;;;;;32.75;25.75;;;;;14.60;71.50;102124.44;4929538;28;45343;-51
2021/11/17 11:31:11;;;;;;;;;34.25;28.25;;;;;14.62;71.16;102124.38;4932943;28;45519;-53
2021/11/17 11:34:12;;;;;;;;;38.75;30.00;;;;;14.64;71.19;102126.00;4929342;28;45443;-50
2021/11/17 11:36:48;;;;;;;;;32.50;29.50;;;;;14.65;70.96;102124.19;4932140;28;45240;-49
2021/11/17 11:39:14;;;;;;;;;31.50;29.75;;;;;14.59;70.82;102132.47;4933313;28;45383;-53
2021/11/17 11:42:00;;;;;;;;;31.50;27.25;;;;;14.56;71.00;102127.34;4930757;28;45436;-49
2021/11/17 11:44:34;;;;;;;;;31.50;27.75;;;;;14.53;70.90;102133.66;4930556;28;45624;-52
2021/11/17 11:47:00;;;;;;;;;33.25;27.50;;;;;14.52;70.99;102119.53;4931016;28;45336;-51
2021/11/17 11:49:33;;;;;;;;;32.00;26.25;;;;;14.54;70.90;102124.78;4932890;28;45144;-49
2021/11/17 11:52:54;;;;;;;;;34.50;27.50;;;;;14.58;71.01;102136.06;4931002;28;45644;-55
2021/11/17 11:55:20;;;;;;;;;29.00;26.00;;;;;14.58;70.96;102134.28;4918415;28;45961;-56
2021/11/17 11:58:23;;;;;;;;;29.75;23.25;;;;;14.61;70.57;102131.44;4932126;28;45711;-58
2021/11/17 12:01:16;;;;;;;;;37.50;25.00;;;;;14.66;70.95;102117.94;4927407;28;45657;-49
2021/11/17 12:04:22;;;;;;;;;33.75;27.50;;;;;14.80;70.67;102123.34;4925182;28;45626;-51
2021/11/17 12:06:56;;;;;;;;;34.00;26.25;;;;;14.91;70.35;102115.66;4837463;29;45577;-54
2021/11/17 12:09:29;;;;;;;;;23.50;18.75;;;;;15.01;70.25;102116.88;4831933;29;45530;-51
2021/11/17 12:11:57;;;;;;;;;31.50;23.50;;;;;15.05;70.07;102114.88;4891029;28;45531;-51
2021/11/17 12:14:49;;;;;;;;;24.75;23.50;;;;;15.10;70.28;102112.00;4927838;28;45454;-50
2021/11/17 12:17:20;;;;;;;;;25.75;21.75;;;;;15.14;69.68;102114.38;4927522;28;45594;-50
2021/11/17 12:19:53;;;;;;;;;29.00;22.00;;;;;15.17;69.97;102114.22;4931702;28;45429;-50
2021/11/17 12:22:37;;;;;;;;;24.00;21.25;;;;;15.21;69.79;102118.38;4928121;28;45455;-52
2021/11/17 12:25:20;;;;;;;;;31.75;27.75;;;;;15.26;69.41;102116.34;4929237;28;45447;-53
2021/11/17 12:27:52;;;;;;;;;23.75;22.50;;;;;15.31;69.67;102110.75;4928274;28;45562;-52
2021/11/17 12:30:48;;;;;;;;;14.50;13.25;;;;;15.32;69.04;102123.97;4930821;28;45264;-51
2021/11/17 12:33:25;;;;;;;;;15.25;14.25;;;;;15.31;68.90;102132.84;4927578;28;45253;-49
2021/11/17 12:36:06;;;;;;;;;10.00;8.50;;;;;15.31;68.27;102124.03;4928711;28;45505;-50
2021/11/17 12:38:37;;;;;;;;;9.25;9.25;;;;;15.28;68.46;102126.88;4923127;28;46329;-53
2021/11/17 12:41:20;;;;;;;;;12.75;10.00;;;;;15.27;68.37;102125.16;4929911;28;45465;-52
2021/11/17 12:43:57;;;;;;;;;13.00;13.00;;;;;15.28;68.37;102125.06;4929789;28;45449;-52
2021/11/17 12:46:31;;;;;;;;;9.50;8.00;;;;;15.29;68.69;102124.13;4931401;28;45451;-53
2021/11/17 12:49:06;;;;;;;;;16.50;8.50;;;;;15.30;67.80;102125.81;4927032;28;45619;-49
2021/11/17 12:51:38;;;;;;;;;7.50;7.00;;;;;15.28;67.63;102124.22;4925941;28;45355;-53
2021/11/17 12:54:14;;;;;;;;;8.00;7.25;;;;;15.26;67.58;102123.44;4927851;28;45498;-51
2021/11/17 12:56:45;;;;;;;;;4.50;4.25;;;;;15.22;67.49;102127.22;4922782;28;45381;-53
2021/11/17 12:59:13;;;;;;;;;10.00;5.50;;;;;15.18;67.53;102115.06;4929238;28;46332;-54
2021/11/17 13:02:00;;;;;;;;;34.75;27.50;;;;;15.10;66.95;102119.94;4931544;28;45382;-54
2021/11/17 13:04:40;;;;;;;;;6.25;4.00;;;;;14.98;67.51;102129.44;4932981;28;45377;-52
2021/11/17 13:07:10;;;;;;;;;8.50;6.75;;;;;14.89;67.68;102124.66;4930862;28;45538;-53
2021/11/17 13:09:42;;;;;;;;;6.75;5.75;;;;;14.82;67.92;102123.28;4931127;28;46175;-53
2021/11/17 13:12:08;;;;;;;;;7.00;6.75;;;;;14.75;67.67;102118.28;4929578;28;45345;-52
2021/11/17 13:14:52;;;;;;;;;12.00;7.00;;;;;14.70;68.32;102114.19;4930763;28;45346;-54
2021/11/17 13:17:33;;;;;;;;;15.50;10.00;;;;;14.66;68.39;102117.94;4928203;28;45563;-52
2021/11/17 13:20:24;;;;;;;;;11.25;8.50;;;;;14.65;68.49;102119.75;4930278;28;45429;-54
2021/11/17 13:23:16;;;;;;;;;16.75;7.75;;;;;14.67;68.63;102124.97;4930304;28;45396;-53
2021/11/17 13:26:12;;;;;;;;;11.50;9.25;;;;;14.68;68.49;102134.63;4920119;28;45646;-51
2021/11/17 13:28:39;;;;;;;;;11.25;7.00;;;;;14.68;68.51;102131.97;4920544;28;45675;-50
2021/11/17 13:31:25;;;;;;;;;9.00;7.25;;;;;14.70;68.73;102138.06;4921304;28;45403;-53
2021/11/17 13:34:05;;;;;;;;;17.00;13.00;;;;;14.71;68.82;102137.13;4920876;28;45371;-50
2021/11/17 13:36:49;;;;;;;;;11.00;9.50;;;;;14.71;68.62;102137.13;4921503;28;46577;-52
2021/11/17 13:39:18;;;;;;;;;12.25;6.25;;;;;14.70;68.68;102146.88;4911945;28;45422;-54
2021/11/17 13:41:50;;;;;;;;;10.25;7.00;;;;;14.69;68.87;102142.53;4921801;28;46204;-53
2021/11/17 13:44:19;;;;;;;;;9.25;6.75;;;;;14.67;68.39;102147.03;4924089;28;45359;-53
2021/11/17 13:46:52;;;;;;;;;6.50;5.25;;;;;14.71;68.38;102148.59;4925206;28;45292;-49
2021/11/17 13:49:17;;;;;;;;;5.25;5.00;;;;;14.73;68.54;102146.72;4925409;28;45534;-51
2021/11/17 13:51:43;;;;;;;;;7.75;6.25;;;;;14.76;68.22;102146.53;4925044;28;45372;-50
2021/11/17 13:54:09;;;;;;;;;10.00;6.00;;;;;14.80;68.41;102149.88;4925341;28;45521;-54
2021/11/17 13:56:38;;;;;;;;;11.00;6.25;;;;;14.84;68.32;102148.75;4925574;28;45182;-54
2021/11/17 13:59:04;;;;;;;;;7.75;7.75;;;;;14.87;68.28;102155.72;4925665;28;45487;-54
2021/11/17 14:01:29;;;;;;;;;12.00;10.50;;;;;14.86;68.44;102148.72;4924727;28;46238;-50
2021/11/17 14:03:55;;;;;;;;;14.00;8.00;;;;;14.88;68.33;102146.81;4924777;28;45316;-53
2021/11/17 14:06:22;;;;;;;;;21.50;19.00;;;;;14.88;68.54;102157.44;4925049;28;45289;-50
2021/11/17 14:08:49;;;;;;;;;9.50;8.25;;;;;14.91;68.28;102155.44;4925082;28;45245;-51
2021/11/17 14:11:15;;;;;;;;;11.00;9.75;;;;;14.91;67.89;102150.16;4924912;28;46239;-54
2021/11/17 14:13:42;;;;;;;;;16.50;11.00;;;;;14.93;67.99;102158.00;4925218;28;45343;-53
2021/11/17 14:16:08;;;;;;;;;24.00;19.00;;;;;14.94;68.19;102152.66;4925031;28;45340;-55
2021/11/17 14:18:34;;;;;;;;;10.75;8.50;;;;;14.93;68.10;102160.66;4925491;28;45304;-53
2021/11/17 14:21:03;;;;;;;;;13.50;7.00;;;;;14.92;68.11;102156.31;4923603;28;47023;-52
2021/11/17 14:23:29;;;;;;;;;8.75;8.25;;;;;14.97;67.85;102156.91;4924841;28;45404;-49